KAL0928 RKSI-RJFF
Flight info
| Callsign | KAL0928 |
|---|---|
| Flight time | N/A |
| Altitude | 26000 |
| Route | OSPOT Y782 TGU Y781 BESNA Y209 SARUP |
| Aircraft | B738/M-SDE2E3FGHIRWXY/LB1 |
Departure
| Time | 2026-05-07 14:28 |
|---|---|
| Airport | Incheon International Airport (RKSI) |
Arrival
| Time | N/A |
|---|---|
| Airport | Fukuoka Airport (RJFF) |
| Time | Latitude | Longitude | Altitude | Speed | Heading |
|---|---|---|---|---|---|
| 2026-05-07 13:57 | 37.45001 | 126.45691 | 31 ft | 0 kts | 293° |
| 2026-05-07 14:11 | 37.44994 | 126.45711 | 32 ft | 4 kts | 296° |
| 2026-05-07 14:11 | 37.44982 | 126.45740 | 32 ft | 4 kts | 302° |
| 2026-05-07 14:11 | 37.44965 | 126.45767 | 32 ft | 4 kts | 318° |
| 2026-05-07 14:11 | 37.44945 | 126.45782 | 32 ft | 4 kts | 8° |
| 2026-05-07 14:12 | 37.44939 | 126.45781 | 32 ft | 0 kts | 26° |
| 2026-05-07 14:20 | 37.44941 | 126.45782 | 31 ft | 1 kts | 23° |
| 2026-05-07 14:20 | 37.44955 | 126.45791 | 32 ft | 3 kts | 26° |
| 2026-05-07 14:20 | 37.44981 | 126.45804 | 31 ft | 4 kts | 16° |
| 2026-05-07 14:21 | 37.45008 | 126.45812 | 32 ft | 4 kts | 11° |
| 2026-05-07 14:21 | 37.45036 | 126.45809 | 31 ft | 4 kts | 330° |
| 2026-05-07 14:21 | 37.45042 | 126.45819 | 32 ft | 0 kts | 332° |
| 2026-05-07 14:21 | 37.45042 | 126.45820 | 31 ft | 0 kts | 353° |
| 2026-05-07 14:22 | 37.45050 | 126.45818 | 31 ft | 2 kts | 347° |
| 2026-05-07 14:22 | 37.45074 | 126.45811 | 32 ft | 5 kts | 346° |
| 2026-05-07 14:22 | 37.45109 | 126.45794 | 31 ft | 6 kts | 336° |
| 2026-05-07 14:22 | 37.45144 | 126.45766 | 31 ft | 6 kts | 322° |
| 2026-05-07 14:23 | 37.45173 | 126.45732 | 30 ft | 6 kts | 314° |
| 2026-05-07 14:23 | 37.45208 | 126.45709 | 32 ft | 6 kts | 352° |
| 2026-05-07 14:23 | 37.45234 | 126.45728 | 32 ft | 4 kts | 59° |
| 2026-05-07 14:23 | 37.45247 | 126.45752 | 32 ft | 0 kts | 55° |
| 2026-05-07 14:24 | 37.45247 | 126.45754 | 32 ft | 0 kts | 53° |
| 2026-05-07 14:24 | 37.45251 | 126.45758 | 32 ft | 1 kts | 43° |
| 2026-05-07 14:24 | 37.45257 | 126.45766 | 32 ft | 2 kts | 58° |
| 2026-05-07 14:25 | 37.45270 | 126.45793 | 31 ft | 5 kts | 55° |
| 2026-05-07 14:25 | 37.45271 | 126.45794 | 32 ft | 0 kts | 55° |
| 2026-05-07 14:25 | 37.45275 | 126.45802 | 32 ft | 2 kts | 56° |
| 2026-05-07 14:26 | 37.45290 | 126.45831 | 30 ft | 6 kts | 55° |
| 2026-05-07 14:26 | 37.45323 | 126.45889 | 31 ft | 9 kts | 54° |
| 2026-05-07 14:26 | 37.45362 | 126.45956 | 31 ft | 9 kts | 54° |
| 2026-05-07 14:26 | 37.45399 | 126.46021 | 31 ft | 9 kts | 53° |
| 2026-05-07 14:27 | 37.45454 | 126.46052 | 31 ft | 9 kts | 358° |
| 2026-05-07 14:27 | 37.45512 | 126.46008 | 31 ft | 14 kts | 326° |
| 2026-05-07 14:27 | 37.45776 | 126.45772 | 30 ft | 83 kts | 324° |
| 2026-05-07 14:27 | 37.46409 | 126.45196 | 49 ft | 137 kts | 323° |
| 2026-05-07 14:28 | 37.47229 | 126.44461 | 517 ft | 152 kts | 322° |
| 2026-05-07 14:28 | 37.48089 | 126.43717 | 1383 ft | 141 kts | 326° |
| 2026-05-07 14:28 | 37.48906 | 126.43053 | 2168 ft | 141 kts | 328° |
| 2026-05-07 14:28 | 37.49809 | 126.42319 | 2504 ft | 168 kts | 328° |
| 2026-05-07 14:29 | 37.50866 | 126.41458 | 2704 ft | 193 kts | 328° |
| 2026-05-07 14:29 | 37.52043 | 126.40496 | 3055 ft | 207 kts | 328° |
| 2026-05-07 14:29 | 37.53265 | 126.39495 | 3602 ft | 212 kts | 328° |
| 2026-05-07 14:29 | 37.54501 | 126.38480 | 4121 ft | 217 kts | 327° |
| 2026-05-07 14:30 | 37.55785 | 126.37443 | 4665 ft | 222 kts | 330° |
| 2026-05-07 14:30 | 37.57258 | 126.36787 | 5193 ft | 228 kts | 344° |
| 2026-05-07 14:30 | 37.58800 | 126.36275 | 5464 ft | 230 kts | 342° |
| 2026-05-07 14:30 | 37.60346 | 126.35738 | 5497 ft | 231 kts | 342° |
| 2026-05-07 14:31 | 37.61915 | 126.35306 | 5496 ft | 233 kts | 356° |
| 2026-05-07 14:31 | 37.63491 | 126.35786 | 5506 ft | 240 kts | 25° |
| 2026-05-07 14:31 | 37.64798 | 126.37241 | 5510 ft | 267 kts | 52° |
| 2026-05-07 14:31 | 37.65582 | 126.39436 | 5523 ft | 281 kts | 66° |
| 2026-05-07 14:32 | 37.66222 | 126.41737 | 5504 ft | 281 kts | 67° |
| 2026-05-07 14:32 | 37.66766 | 126.44084 | 5485 ft | 283 kts | 81° |
| 2026-05-07 14:32 | 37.66545 | 126.46567 | 5575 ft | 289 kts | 104° |
| 2026-05-07 14:32 | 37.65878 | 126.48990 | 6201 ft | 294 kts | 109° |
| 2026-05-07 14:33 | 37.65147 | 126.51407 | 7024 ft | 296 kts | 111° |
| 2026-05-07 14:33 | 37.64398 | 126.53835 | 7768 ft | 300 kts | 116° |
| 2026-05-07 14:33 | 37.63154 | 126.55934 | 8492 ft | 301 kts | 140° |
| 2026-05-07 14:33 | 37.61599 | 126.57712 | 9289 ft | 304 kts | 141° |
| 2026-05-07 14:34 | 37.60005 | 126.59501 | 10039 ft | 310 kts | 142° |
| 2026-05-07 14:34 | 37.58355 | 126.61351 | 10459 ft | 329 kts | 142° |
| 2026-05-07 14:34 | 37.56585 | 126.63340 | 10685 ft | 352 kts | 142° |
| 2026-05-07 14:34 | 37.54736 | 126.65435 | 11268 ft | 361 kts | 142° |
| 2026-05-07 14:35 | 37.52872 | 126.67560 | 12019 ft | 365 kts | 142° |
| 2026-05-07 14:35 | 37.50983 | 126.69718 | 12832 ft | 368 kts | 143° |
| 2026-05-07 14:35 | 37.49072 | 126.71900 | 13638 ft | 373 kts | 143° |
| 2026-05-07 14:35 | 37.47129 | 126.74117 | 14368 ft | 378 kts | 144° |
| 2026-05-07 14:36 | 37.45199 | 126.76317 | 15121 ft | 381 kts | 145° |
| 2026-05-07 14:36 | 37.43229 | 126.78559 | 15938 ft | 383 kts | 146° |
| 2026-05-07 14:36 | 37.41243 | 126.80809 | 16715 ft | 386 kts | 147° |
| 2026-05-07 14:36 | 37.39161 | 126.82923 | 17477 ft | 385 kts | 149° |
| 2026-05-07 14:37 | 37.37093 | 126.85122 | 18220 ft | 392 kts | 148° |
| 2026-05-07 14:37 | 37.32723 | 126.89195 | 19394 ft | 393 kts | 154° |
| 2026-05-07 14:37 | 37.30485 | 126.91220 | 19933 ft | 400 kts | 153° |
| 2026-05-07 14:38 | 37.28235 | 126.93320 | 20462 ft | 406 kts | 152° |
| 2026-05-07 14:38 | 37.25964 | 126.95466 | 20972 ft | 412 kts | 152° |
| 2026-05-07 14:38 | 37.23670 | 126.97643 | 21499 ft | 416 kts | 152° |
| 2026-05-07 14:38 | 37.21348 | 126.99846 | 21986 ft | 421 kts | 152° |
| 2026-05-07 14:39 | 37.19033 | 127.02038 | 22503 ft | 425 kts | 153° |
| 2026-05-07 14:39 | 37.16660 | 127.04280 | 22990 ft | 429 kts | 153° |
| 2026-05-07 14:39 | 37.14254 | 127.06547 | 23282 ft | 439 kts | 153° |
| 2026-05-07 14:39 | 37.11771 | 127.08868 | 23404 ft | 451 kts | 153° |
| 2026-05-07 14:40 | 37.09240 | 127.11227 | 23716 ft | 456 kts | 153° |
| 2026-05-07 14:40 | 37.06689 | 127.13612 | 24139 ft | 457 kts | 153° |
| 2026-05-07 14:40 | 37.04144 | 127.16010 | 24582 ft | 460 kts | 152° |
| 2026-05-07 14:40 | 37.01678 | 127.18632 | 24920 ft | 469 kts | 147° |
| 2026-05-07 14:41 | 36.99298 | 127.21383 | 25228 ft | 476 kts | 146° |
| 2026-05-07 14:41 | 36.96891 | 127.24220 | 25533 ft | 479 kts | 146° |
| 2026-05-07 14:41 | 36.94452 | 127.27079 | 25961 ft | 479 kts | 146° |
| 2026-05-07 14:41 | 36.92008 | 127.29910 | 26395 ft | 478 kts | 146° |
| 2026-05-07 14:42 | 36.89558 | 127.32717 | 26894 ft | 477 kts | 147° |
| 2026-05-07 14:42 | 36.87099 | 127.35507 | 26928 ft | 479 kts | 147° |
| 2026-05-07 14:42 | 36.84631 | 127.38286 | 26949 ft | 476 kts | 147° |
| 2026-05-07 14:42 | 36.82180 | 127.41039 | 26963 ft | 473 kts | 147° |
| 2026-05-07 14:43 | 36.79708 | 127.43799 | 26977 ft | 481 kts | 147° |
| 2026-05-07 14:43 | 36.77224 | 127.46558 | 26978 ft | 488 kts | 147° |
| 2026-05-07 14:43 | 36.74673 | 127.49385 | 26949 ft | 494 kts | 147° |
| 2026-05-07 14:43 | 36.72094 | 127.52245 | 26942 ft | 499 kts | 147° |
| 2026-05-07 14:44 | 36.69490 | 127.55133 | 26944 ft | 504 kts | 147° |
| 2026-05-07 14:44 | 36.66864 | 127.58050 | 26951 ft | 508 kts | 147° |
| 2026-05-07 14:44 | 36.64215 | 127.60992 | 26946 ft | 512 kts | 147° |
| 2026-05-07 14:44 | 36.61549 | 127.63951 | 26944 ft | 515 kts | 147° |
| 2026-05-07 14:45 | 36.58869 | 127.66925 | 26943 ft | 516 kts | 147° |
| 2026-05-07 14:45 | 36.56190 | 127.69899 | 26934 ft | 516 kts | 147° |
| 2026-05-07 14:45 | 36.53509 | 127.72870 | 26905 ft | 516 kts | 147° |
| 2026-05-07 14:45 | 36.50847 | 127.75748 | 26921 ft | 511 kts | 150° |
| 2026-05-07 14:46 | 36.47986 | 127.78271 | 26950 ft | 502 kts | 155° |
| 2026-05-07 14:46 | 36.45058 | 127.80616 | 26937 ft | 500 kts | 157° |
| 2026-05-07 14:46 | 36.42109 | 127.82900 | 26931 ft | 499 kts | 157° |
| 2026-05-07 14:46 | 36.39160 | 127.85167 | 26897 ft | 498 kts | 157° |
| 2026-05-07 14:47 | 36.36222 | 127.87436 | 26943 ft | 497 kts | 156° |
| 2026-05-07 14:47 | 36.33294 | 127.89717 | 26920 ft | 498 kts | 156° |
| 2026-05-07 14:47 | 36.30365 | 127.92013 | 26937 ft | 498 kts | 156° |
| 2026-05-07 14:47 | 36.27471 | 127.94291 | 26942 ft | 499 kts | 156° |
| 2026-05-07 14:48 | 36.24547 | 127.96598 | 26920 ft | 499 kts | 156° |
| 2026-05-07 14:48 | 36.21618 | 127.98906 | 26930 ft | 499 kts | 156° |
| 2026-05-07 14:48 | 36.18684 | 128.01216 | 26914 ft | 499 kts | 156° |
| 2026-05-07 14:48 | 36.15758 | 128.03517 | 26929 ft | 499 kts | 156° |
| 2026-05-07 14:49 | 36.12827 | 128.05819 | 26923 ft | 499 kts | 156° |
| 2026-05-07 14:49 | 36.09898 | 128.08117 | 26889 ft | 499 kts | 156° |
| 2026-05-07 14:49 | 36.06971 | 128.10413 | 26916 ft | 498 kts | 156° |
| 2026-05-07 14:49 | 36.04045 | 128.12706 | 26916 ft | 498 kts | 156° |
| 2026-05-07 14:50 | 36.01117 | 128.14999 | 26930 ft | 498 kts | 156° |
| 2026-05-07 14:50 | 35.98229 | 128.17257 | 26924 ft | 498 kts | 156° |
| 2026-05-07 14:50 | 35.95298 | 128.19546 | 26883 ft | 498 kts | 156° |
| 2026-05-07 14:50 | 35.92373 | 128.21826 | 26915 ft | 497 kts | 156° |
| 2026-05-07 14:51 | 35.89451 | 128.24105 | 26925 ft | 497 kts | 156° |
| 2026-05-07 14:51 | 35.86529 | 128.26383 | 26916 ft | 497 kts | 156° |
| 2026-05-07 14:51 | 35.83611 | 128.28654 | 26913 ft | 497 kts | 156° |
| 2026-05-07 14:51 | 35.80686 | 128.30927 | 26896 ft | 497 kts | 155° |
| 2026-05-07 14:52 | 35.77764 | 128.33197 | 26919 ft | 497 kts | 155° |
| 2026-05-07 14:52 | 35.74833 | 128.35469 | 26909 ft | 498 kts | 155° |
| 2026-05-07 14:52 | 35.71902 | 128.37739 | 26910 ft | 498 kts | 155° |
| 2026-05-07 14:52 | 35.69006 | 128.39978 | 26916 ft | 499 kts | 155° |
| 2026-05-07 14:53 | 35.66063 | 128.42250 | 26918 ft | 500 kts | 155° |
| 2026-05-07 14:53 | 35.63119 | 128.44519 | 26910 ft | 500 kts | 156° |
| 2026-05-07 14:53 | 35.60168 | 128.46791 | 26906 ft | 500 kts | 156° |
| 2026-05-07 14:53 | 35.57221 | 128.49055 | 26903 ft | 500 kts | 156° |
| 2026-05-07 14:54 | 35.54271 | 128.51316 | 26887 ft | 500 kts | 155° |
| 2026-05-07 14:54 | 35.51323 | 128.53583 | 26901 ft | 500 kts | 155° |
| 2026-05-07 14:54 | 35.48379 | 128.55849 | 26902 ft | 498 kts | 156° |
| 2026-05-07 14:54 | 35.45368 | 128.57912 | 26903 ft | 493 kts | 160° |
| 2026-05-07 14:55 | 35.43343 | 128.59163 | 26907 ft | 492 kts | 161° |
| 2026-05-07 14:55 | 35.39255 | 128.61542 | 26909 ft | 490 kts | 162° |
| 2026-05-07 14:55 | 35.36166 | 128.63302 | 26909 ft | 490 kts | 162° |
| 2026-05-07 14:55 | 35.33077 | 128.65075 | 26911 ft | 490 kts | 162° |
| 2026-05-07 14:56 | 35.29998 | 128.66862 | 26889 ft | 490 kts | 162° |
| 2026-05-07 14:56 | 35.26917 | 128.68669 | 26885 ft | 490 kts | 161° |
| 2026-05-07 14:56 | 35.23849 | 128.70476 | 26910 ft | 490 kts | 161° |
| 2026-05-07 14:56 | 35.20776 | 128.72283 | 26913 ft | 490 kts | 161° |
| 2026-05-07 14:57 | 35.17701 | 128.74083 | 26909 ft | 491 kts | 161° |
| 2026-05-07 14:57 | 35.14663 | 128.75868 | 26898 ft | 490 kts | 161° |
| 2026-05-07 14:57 | 35.11594 | 128.77676 | 26900 ft | 490 kts | 161° |
| 2026-05-07 14:57 | 35.08530 | 128.79476 | 26913 ft | 489 kts | 161° |
| 2026-05-07 14:58 | 35.05464 | 128.81273 | 26910 ft | 489 kts | 161° |
| 2026-05-07 14:58 | 35.02401 | 128.83071 | 26897 ft | 489 kts | 161° |
| 2026-05-07 14:58 | 35.00378 | 128.84280 | 26902 ft | 491 kts | 159° |
| 2026-05-07 14:58 | 34.97390 | 128.86346 | 26910 ft | 495 kts | 155° |
| 2026-05-07 14:59 | 34.94472 | 128.88592 | 26911 ft | 498 kts | 154° |
| 2026-05-07 14:59 | 34.91568 | 128.90899 | 26892 ft | 498 kts | 153° |
| 2026-05-07 14:59 | 34.88663 | 128.93197 | 26895 ft | 497 kts | 154° |
| 2026-05-07 14:59 | 34.84799 | 128.96190 | 26912 ft | 496 kts | 154° |
| 2026-05-07 15:00 | 34.81924 | 128.98387 | 26833 ft | 478 kts | 154° |
| 2026-05-07 15:00 | 34.79163 | 129.00496 | 26643 ft | 461 kts | 154° |
| 2026-05-07 15:00 | 34.76488 | 129.02531 | 26379 ft | 447 kts | 154° |
| 2026-05-07 15:00 | 34.73875 | 129.04501 | 26002 ft | 436 kts | 154° |
| 2026-05-07 15:01 | 34.72174 | 129.05774 | 25742 ft | 431 kts | 154° |
| 2026-05-07 15:01 | 34.68787 | 129.08282 | 25149 ft | 422 kts | 155° |
| 2026-05-07 15:01 | 34.66265 | 129.10144 | 25017 ft | 427 kts | 154° |
| 2026-05-07 15:01 | 34.64585 | 129.11396 | 24967 ft | 427 kts | 154° |
| 2026-05-07 15:02 | 34.61264 | 129.13903 | 24920 ft | 421 kts | 153° |
| 2026-05-07 15:02 | 34.58787 | 129.15797 | 24928 ft | 422 kts | 153° |
| 2026-05-07 15:02 | 34.56306 | 129.17692 | 24890 ft | 417 kts | 153° |
| 2026-05-07 15:02 | 34.54693 | 129.18923 | 24690 ft | 412 kts | 153° |
| 2026-05-07 15:03 | 34.52270 | 129.20758 | 24273 ft | 407 kts | 153° |
| 2026-05-07 15:03 | 34.49911 | 129.22535 | 24182 ft | 392 kts | 153° |
| 2026-05-07 15:03 | 34.47615 | 129.24262 | 23835 ft | 386 kts | 153° |
| 2026-05-07 15:03 | 34.45334 | 129.25964 | 23303 ft | 386 kts | 153° |
| 2026-05-07 15:04 | 34.43046 | 129.27659 | 22726 ft | 385 kts | 153° |
| 2026-05-07 15:04 | 34.40758 | 129.29348 | 22097 ft | 386 kts | 153° |
| 2026-05-07 15:04 | 34.38462 | 129.31040 | 21536 ft | 386 kts | 153° |
| 2026-05-07 15:04 | 34.36182 | 129.32722 | 21063 ft | 382 kts | 153° |
| 2026-05-07 15:05 | 34.33193 | 129.34931 | 20462 ft | 378 kts | 153° |
| 2026-05-07 15:05 | 34.31710 | 129.36027 | 20174 ft | 376 kts | 154° |
| 2026-05-07 15:05 | 34.29497 | 129.37662 | 19835 ft | 370 kts | 154° |
| 2026-05-07 15:05 | 34.27312 | 129.39277 | 19425 ft | 366 kts | 154° |
| 2026-05-07 15:06 | 34.25145 | 129.40874 | 18981 ft | 364 kts | 154° |
| 2026-05-07 15:06 | 34.22987 | 129.42461 | 18558 ft | 362 kts | 154° |
| 2026-05-07 15:06 | 34.20847 | 129.44032 | 18145 ft | 358 kts | 154° |
| 2026-05-07 15:06 | 34.18725 | 129.45589 | 17650 ft | 355 kts | 154° |
| 2026-05-07 15:07 | 34.16617 | 129.47132 | 17155 ft | 353 kts | 154° |
| 2026-05-07 15:07 | 34.14518 | 129.48663 | 16631 ft | 352 kts | 154° |
| 2026-05-07 15:07 | 34.12420 | 129.50184 | 15899 ft | 350 kts | 154° |
| 2026-05-07 15:07 | 34.10371 | 129.51672 | 15209 ft | 346 kts | 154° |
| 2026-05-07 15:08 | 34.08325 | 129.53174 | 14520 ft | 343 kts | 153° |
| 2026-05-07 15:08 | 34.06300 | 129.54675 | 13847 ft | 340 kts | 152° |
| 2026-05-07 15:08 | 34.04299 | 129.56158 | 13309 ft | 333 kts | 152° |
| 2026-05-07 15:08 | 34.02308 | 129.57625 | 13166 ft | 337 kts | 152° |
| 2026-05-07 15:09 | 34.00312 | 129.59100 | 13033 ft | 335 kts | 152° |
| 2026-05-07 15:09 | 33.98341 | 129.60568 | 13026 ft | 332 kts | 152° |
| 2026-05-07 15:09 | 33.96363 | 129.62049 | 13204 ft | 340 kts | 152° |
| 2026-05-07 15:09 | 33.94316 | 129.63552 | 13292 ft | 349 kts | 153° |
| 2026-05-07 15:10 | 33.92241 | 129.65053 | 13335 ft | 347 kts | 153° |
| 2026-05-07 15:10 | 33.90201 | 129.66518 | 13355 ft | 347 kts | 153° |
| 2026-05-07 15:10 | 33.88129 | 129.68009 | 13358 ft | 347 kts | 153° |
| 2026-05-07 15:10 | 33.86058 | 129.69512 | 13359 ft | 348 kts | 153° |
| 2026-05-07 15:11 | 33.83989 | 129.71025 | 13363 ft | 345 kts | 153° |
| 2026-05-07 15:11 | 33.81984 | 129.72528 | 13346 ft | 334 kts | 151° |
| 2026-05-07 15:11 | 33.80053 | 129.74015 | 13346 ft | 327 kts | 151° |
| 2026-05-07 15:11 | 33.78136 | 129.75498 | 13368 ft | 330 kts | 151° |
| 2026-05-07 15:12 | 33.76202 | 129.76996 | 13366 ft | 330 kts | 151° |
| 2026-05-07 15:12 | 33.74270 | 129.78493 | 13364 ft | 331 kts | 151° |
| 2026-05-07 15:12 | 33.72334 | 129.79995 | 13363 ft | 331 kts | 151° |
| 2026-05-07 15:12 | 33.70508 | 129.81640 | 13365 ft | 337 kts | 141° |
| 2026-05-07 15:13 | 33.68702 | 129.83348 | 13237 ft | 321 kts | 149° |
| 2026-05-07 15:13 | 33.66874 | 129.84793 | 12887 ft | 309 kts | 153° |
| 2026-05-07 15:13 | 33.65002 | 129.86021 | 12269 ft | 305 kts | 156° |
| 2026-05-07 15:13 | 33.63110 | 129.87180 | 11605 ft | 306 kts | 156° |
| 2026-05-07 15:14 | 33.61213 | 129.88319 | 11003 ft | 304 kts | 156° |
| 2026-05-07 15:14 | 33.59326 | 129.89439 | 10447 ft | 301 kts | 156° |
| 2026-05-07 15:14 | 33.57455 | 129.90546 | 9901 ft | 300 kts | 154° |
| 2026-05-07 15:14 | 33.55860 | 129.92165 | 9405 ft | 306 kts | 124° |
| 2026-05-07 15:15 | 33.55141 | 129.94456 | 9274 ft | 295 kts | 94° |
| 2026-05-07 15:15 | 33.55395 | 129.96849 | 8842 ft | 290 kts | 62° |
| 2026-05-07 15:15 | 33.56551 | 129.98770 | 8314 ft | 284 kts | 36° |
| 2026-05-07 15:15 | 33.58061 | 130.00293 | 7799 ft | 283 kts | 31° |
| 2026-05-07 15:16 | 33.59602 | 130.01729 | 7348 ft | 279 kts | 31° |
| 2026-05-07 15:16 | 33.61144 | 130.03132 | 6891 ft | 278 kts | 31° |
| 2026-05-07 15:16 | 33.62685 | 130.04510 | 6441 ft | 274 kts | 31° |
| 2026-05-07 15:16 | 33.64215 | 130.05859 | 6061 ft | 269 kts | 30° |
| 2026-05-07 15:17 | 33.65694 | 130.07163 | 5761 ft | 261 kts | 30° |
| 2026-05-07 15:17 | 33.67149 | 130.08447 | 5337 ft | 259 kts | 30° |
| 2026-05-07 15:17 | 33.68580 | 130.09705 | 4901 ft | 258 kts | 30° |
| 2026-05-07 15:17 | 33.70032 | 130.10972 | 4477 ft | 259 kts | 30° |
| 2026-05-07 15:18 | 33.71502 | 130.12246 | 4008 ft | 263 kts | 30° |
| 2026-05-07 15:18 | 33.72998 | 130.13539 | 3437 ft | 267 kts | 30° |
| 2026-05-07 15:18 | 33.74480 | 130.14847 | 3058 ft | 261 kts | 36° |
| 2026-05-07 15:18 | 33.75568 | 130.16544 | 2703 ft | 254 kts | 64° |
| 2026-05-07 15:19 | 33.75899 | 130.18549 | 2426 ft | 239 kts | 93° |
| 2026-05-07 15:19 | 33.75470 | 130.20390 | 2170 ft | 222 kts | 117° |
| 2026-05-07 15:19 | 33.74647 | 130.21949 | 2040 ft | 221 kts | 134° |
| 2026-05-07 15:19 | 33.73542 | 130.23171 | 2031 ft | 213 kts | 140° |
| 2026-05-07 15:20 | 33.72429 | 130.24300 | 2001 ft | 212 kts | 140° |
| 2026-05-07 15:20 | 33.71298 | 130.25441 | 2004 ft | 213 kts | 140° |
| 2026-05-07 15:20 | 33.70150 | 130.26558 | 1996 ft | 211 kts | 140° |